createdAt,value
2022-10-08T00:01:37.244Z,17.13
2022-10-08T00:04:04.789Z,17.13
2022-10-08T00:06:33.155Z,18.30
2022-10-08T00:09:03.503Z,17.17
2022-10-08T00:11:33.720Z,18.08
2022-10-08T00:14:02.172Z,15.57
2022-10-08T00:16:36.122Z,21.15
2022-10-08T00:19:06.895Z,19.30
2022-10-08T00:21:36.960Z,22.65
2022-10-08T00:24:06.258Z,14.70
2022-10-08T00:26:39.751Z,14.90
2022-10-08T00:29:14.232Z,16.02
2022-10-08T00:31:45.402Z,17.48
2022-10-08T00:34:19.770Z,20.47
2022-10-08T00:36:51.772Z,14.40
2022-10-08T00:39:22.630Z,14.27
2022-10-08T00:41:52.413Z,11.43
2022-10-08T00:44:51.628Z,12.18
2022-10-08T00:47:37.151Z,11.88
2022-10-08T00:50:25.483Z,11.23
2022-10-08T00:52:56.850Z,14.50
2022-10-08T00:55:28.100Z,18.07
2022-10-08T00:58:02.209Z,12.77
2022-10-08T01:00:31.186Z,12.23
2022-10-08T01:02:59.301Z,13.98
2022-10-08T01:05:46.920Z,15.60
2022-10-08T01:08:38.366Z,14.10
2022-10-08T01:11:23.066Z,13.82
2022-10-08T01:14:05.478Z,15.65
2022-10-08T01:19:20.545Z,16.75
2022-10-08T01:22:09.123Z,13.30
2022-10-08T01:25:07.952Z,13.70
2022-10-08T01:27:44.421Z,14.68
2022-10-08T01:30:15.110Z,17.55
2022-10-08T01:32:56.268Z,15.43
2022-10-08T01:35:37.772Z,16.58
2022-10-08T01:38:07.086Z,15.48
2022-10-08T01:40:39.566Z,15.50
2022-10-08T01:43:10.343Z,16.02
2022-10-08T01:45:54.755Z,20.15
2022-10-08T01:48:34.045Z,14.20
2022-10-08T01:51:15.292Z,16.92
2022-10-08T01:53:46.003Z,24.27
2022-10-08T01:56:19.875Z,24.05
2022-10-08T01:58:55.629Z,24.92
2022-10-08T02:01:41.307Z,14.57
2022-10-08T02:04:27.105Z,17.00
2022-10-08T02:06:59.325Z,15.45
2022-10-08T02:11:55.329Z,15.18
2022-10-08T02:14:26.569Z,17.08
2022-10-08T02:17:01.103Z,14.30
2022-10-08T02:20:19.823Z,21.13
2022-10-08T02:22:59.357Z,24.92
2022-10-08T02:25:44.723Z,15.63
2022-10-08T02:28:37.180Z,14.68
2022-10-08T02:31:26.674Z,16.40
2022-10-08T02:34:02.868Z,14.43
2022-10-08T02:36:40.715Z,15.93
2022-10-08T02:39:10.227Z,13.20
2022-10-08T02:41:52.268Z,18.75
2022-10-08T02:44:29.015Z,14.95
2022-10-08T02:47:00.457Z,16.85
2022-10-08T02:49:31.837Z,15.10
2022-10-08T02:52:01.906Z,12.60
2022-10-08T02:54:36.037Z,14.95
2022-10-08T02:57:38.187Z,13.20
2022-10-08T03:00:07.026Z,14.48
2022-10-08T03:02:43.798Z,14.05
2022-10-08T03:05:19.765Z,17.08
2022-10-08T03:07:50.481Z,15.63
2022-10-08T03:10:19.920Z,14.50
2022-10-08T03:12:47.886Z,12.18
2022-10-08T03:15:15.579Z,13.35
2022-10-08T03:17:46.369Z,14.32
2022-10-08T03:20:14.165Z,16.67
2022-10-08T03:22:41.654Z,15.35
2022-10-08T03:25:09.332Z,14.95
2022-10-08T03:27:36.790Z,11.07
2022-10-08T03:30:05.408Z,13.85
2022-10-08T03:32:32.766Z,14.27
2022-10-08T03:35:00.135Z,15.48
2022-10-08T03:37:27.527Z,15.23
2022-10-08T03:39:54.880Z,15.35
2022-10-08T03:42:22.262Z,11.90
2022-10-08T03:44:49.584Z,12.82
2022-10-08T03:47:16.950Z,15.60
2022-10-08T03:49:44.349Z,13.48
2022-10-08T03:52:11.668Z,14.90
2022-10-08T03:54:39.061Z,13.00
2022-10-08T03:57:06.459Z,11.05
2022-10-08T03:59:33.858Z,13.73
2022-10-08T04:02:01.186Z,17.58
2022-10-08T04:04:28.667Z,17.65
2022-10-08T04:06:56.030Z,13.98
2022-10-08T04:09:23.416Z,14.85
2022-10-08T04:11:50.800Z,14.98
2022-10-08T04:14:18.197Z,20.52
2022-10-08T04:16:45.640Z,23.00
2022-10-08T04:19:13.145Z,12.63
2022-10-08T04:21:40.582Z,12.10
2022-10-08T04:24:09.208Z,15.43
2022-10-08T04:26:36.621Z,17.92
2022-10-08T04:29:04.087Z,15.93
2022-10-08T04:31:31.524Z,16.23
2022-10-08T04:33:58.932Z,16.23
2022-10-08T04:36:26.397Z,11.95
2022-10-08T04:38:53.802Z,16.05
2022-10-08T04:41:23.850Z,14.82
2022-10-08T04:43:52.404Z,14.38
2022-10-08T04:46:22.008Z,19.60
2022-10-08T04:48:52.609Z,18.70
2022-10-08T04:51:22.707Z,17.67
2022-10-08T04:53:50.553Z,15.00
2022-10-08T04:56:23.130Z,21.85
2022-10-08T04:58:51.164Z,18.52
2022-10-08T05:01:20.060Z,17.45
2022-10-08T05:03:49.906Z,19.77
2022-10-08T05:06:19.669Z,18.23
2022-10-08T05:08:47.683Z,19.83
2022-10-08T05:11:16.371Z,18.75
2022-10-08T05:13:44.138Z,21.85
2022-10-08T05:16:13.542Z,20.98
2022-10-08T05:18:42.302Z,18.98
2022-10-08T05:21:18.516Z,16.88
2022-10-08T05:23:46.146Z,23.00
2022-10-08T05:26:35.899Z,18.92
2022-10-08T05:29:11.075Z,20.85
2022-10-08T05:31:38.926Z,21.63
2022-10-08T05:34:06.374Z,20.17
2022-10-08T05:36:34.483Z,21.90
2022-10-08T05:39:03.971Z,22.55
2022-10-08T05:41:33.906Z,21.58
2022-10-08T05:44:04.213Z,24.02
2022-10-08T05:46:33.730Z,26.67
2022-10-08T05:49:03.060Z,27.30
2022-10-08T05:51:30.939Z,20.80
2022-10-08T05:54:00.150Z,20.58
2022-10-08T05:56:28.745Z,20.63
2022-10-08T05:58:56.118Z,19.95
2022-10-08T06:01:28.853Z,23.17
2022-10-08T06:03:58.972Z,19.17
2022-10-08T06:06:26.921Z,28.40
2022-10-08T06:08:56.002Z,32.70
2022-10-08T06:11:23.273Z,20.08
2022-10-08T06:13:55.209Z,22.52
2022-10-08T06:16:23.509Z,18.30
2022-10-08T06:18:50.941Z,42.22
2022-10-08T06:21:21.182Z,19.88
2022-10-08T06:23:53.797Z,20.42
2022-10-08T06:26:22.711Z,29.70
2022-10-08T06:28:50.306Z,25.77
2022-10-08T06:31:18.087Z,29.17
2022-10-08T06:33:45.962Z,31.98
2022-10-08T06:36:15.198Z,26.27
2022-10-08T06:38:42.614Z,25.58
2022-10-08T06:41:10.092Z,27.10
2022-10-08T06:43:37.484Z,17.60
2022-10-08T06:46:06.109Z,22.95
2022-10-08T06:48:34.153Z,27.08
2022-10-08T06:51:07.255Z,21.30
2022-10-08T06:53:35.038Z,21.23
2022-10-08T06:56:06.000Z,24.17
2022-10-08T06:58:35.256Z,19.63
2022-10-08T07:01:12.469Z,30.65
2022-10-08T07:03:40.071Z,42.00
2022-10-08T07:06:09.776Z,27.27
2022-10-08T07:08:37.211Z,18.85
2022-10-08T07:11:08.673Z,20.83
2022-10-08T07:13:38.115Z,25.27
2022-10-08T07:16:08.295Z,23.63
2022-10-08T07:18:37.098Z,51.95
2022-10-08T07:21:05.885Z,20.65
2022-10-08T07:23:33.615Z,29.05
2022-10-08T07:26:07.214Z,25.65
2022-10-08T07:28:36.897Z,23.63
2022-10-08T07:31:06.142Z,43.78
2022-10-08T07:33:33.835Z,26.90
2022-10-08T07:36:12.970Z,28.50
2022-10-08T07:38:41.365Z,16.65
2022-10-08T07:41:10.158Z,22.38
2022-10-08T07:43:40.993Z,34.40
2022-10-08T07:46:10.127Z,24.75
2022-10-08T07:48:38.529Z,26.17
2022-10-08T07:51:26.792Z,27.02
2022-10-08T07:53:56.781Z,28.70
2022-10-08T07:56:27.612Z,25.77
2022-10-08T07:58:55.049Z,28.83
2022-10-08T08:01:28.599Z,26.33
2022-10-08T08:04:08.050Z,26.58
2022-10-08T08:06:49.724Z,16.95
2022-10-08T08:09:18.501Z,25.50
2022-10-08T08:11:47.364Z,21.95
2022-10-08T08:14:14.788Z,61.00
2022-10-08T08:16:42.255Z,21.77
2022-10-08T08:19:09.671Z,19.67
2022-10-08T08:21:39.235Z,18.20
2022-10-08T08:24:10.622Z,19.45
2022-10-08T08:26:39.673Z,18.10
2022-10-08T08:29:12.033Z,21.60
2022-10-08T08:34:10.214Z,31.95
2022-10-08T08:36:42.555Z,19.40
2022-10-08T08:41:44.273Z,19.27
2022-10-08T08:44:18.887Z,15.27
2022-10-08T08:46:52.351Z,22.70
2022-10-08T08:49:31.589Z,16.33
2022-10-08T08:52:01.637Z,18.65
2022-10-08T08:54:29.200Z,17.30
2022-10-08T08:57:12.823Z,16.48
2022-10-08T08:59:45.224Z,16.38
2022-10-08T09:02:51.965Z,23.30
2022-10-08T09:05:20.488Z,19.35
2022-10-08T09:08:00.780Z,13.57
2022-10-08T09:10:43.100Z,23.00
2022-10-08T09:13:18.884Z,16.88
2022-10-08T09:15:47.060Z,20.42
2022-10-08T09:18:16.388Z,24.13
2022-10-08T09:20:44.744Z,19.40
2022-10-08T09:23:23.284Z,19.88
2022-10-08T09:26:08.931Z,18.05
2022-10-08T09:28:42.063Z,16.95
2022-10-08T09:31:18.258Z,16.48
2022-10-08T09:33:52.645Z,18.52
2022-10-08T09:36:38.020Z,16.45
2022-10-08T09:39:16.139Z,20.67
2022-10-08T09:41:45.747Z,20.90
2022-10-08T09:44:16.594Z,20.88
2022-10-08T09:46:44.977Z,19.58
2022-10-08T09:49:28.088Z,17.58
2022-10-08T09:51:59.638Z,23.27
2022-10-08T09:54:56.192Z,22.40
2022-10-08T09:57:23.667Z,18.33
2022-10-08T09:59:54.873Z,20.95
2022-10-08T10:02:37.271Z,19.50
2022-10-08T10:07:46.280Z,24.75
2022-10-08T10:10:16.791Z,22.15
2022-10-08T10:12:49.266Z,31.85
2022-10-08T10:15:26.373Z,22.70
2022-10-08T10:18:04.865Z,21.90
2022-10-08T10:21:01.323Z,27.77
2022-10-08T10:23:40.642Z,23.83
2022-10-08T10:26:15.425Z,25.55
2022-10-08T10:28:54.855Z,28.88
2022-10-08T10:31:36.832Z,25.10
2022-10-08T10:34:13.129Z,26.50
2022-10-08T10:36:49.502Z,28.27
2022-10-08T10:39:35.669Z,24.55
2022-10-08T10:42:38.292Z,25.33
2022-10-08T10:45:14.794Z,29.23
2022-10-08T10:47:42.226Z,27.52
2022-10-08T10:50:14.393Z,28.10
2022-10-08T10:55:59.213Z,24.38
2022-10-08T10:58:40.261Z,26.77
2022-10-08T11:01:26.032Z,26.20
2022-10-08T11:04:15.181Z,33.47
2022-10-08T11:07:17.802Z,32.28
2022-10-08T11:10:00.483Z,35.50
2022-10-08T11:12:52.987Z,27.00
2022-10-08T11:15:43.159Z,26.25
2022-10-08T11:18:10.502Z,29.80
2022-10-08T11:20:58.071Z,30.25
2022-10-08T11:24:03.858Z,28.38
2022-10-08T11:26:52.413Z,30.23
2022-10-08T11:29:50.484Z,31.58
2022-10-08T11:32:19.339Z,30.73
2022-10-08T11:34:53.258Z,29.70
2022-10-08T11:37:28.209Z,26.52
2022-10-08T11:40:06.434Z,30.33
2022-10-08T11:42:50.893Z,25.58
2022-10-08T11:45:24.347Z,26.70
2022-10-08T11:47:57.482Z,25.77
2022-10-08T11:50:26.864Z,26.63
2022-10-08T11:52:58.743Z,28.33
2022-10-08T11:55:32.506Z,28.58
2022-10-08T11:58:08.994Z,21.73
2022-10-08T12:00:41.345Z,31.17
2022-10-08T12:03:28.239Z,27.92
2022-10-08T12:06:13.814Z,35.17
2022-10-08T12:09:00.994Z,31.27
2022-10-08T12:11:40.306Z,32.42
2022-10-08T12:14:14.347Z,31.70
2022-10-08T12:16:47.851Z,28.52
2022-10-08T12:19:36.332Z,30.95
2022-10-08T12:22:16.725Z,27.52
2022-10-08T12:24:49.589Z,26.48
2022-10-08T12:27:17.939Z,25.02
2022-10-08T12:29:55.171Z,25.88
2022-10-08T12:32:31.230Z,29.67
2022-10-08T12:34:59.727Z,31.35
2022-10-08T12:37:42.361Z,29.92
2022-10-08T12:40:18.489Z,31.30
2022-10-08T12:42:47.160Z,31.25
2022-10-08T12:45:29.016Z,26.98
2022-10-08T12:48:06.550Z,30.33
2022-10-08T12:51:02.503Z,27.63
2022-10-08T12:53:30.303Z,27.95
2022-10-08T12:55:58.469Z,27.20
2022-10-08T12:58:33.395Z,23.75
2022-10-08T13:01:04.295Z,24.55
2022-10-08T13:03:31.830Z,22.55
2022-10-08T13:06:23.673Z,22.60
2022-10-08T13:08:51.236Z,24.73
2022-10-08T13:11:18.984Z,22.55
2022-10-08T13:13:50.692Z,24.65
2022-10-08T13:16:23.936Z,25.02
2022-10-08T13:18:58.511Z,26.75
2022-10-08T13:21:32.104Z,27.05
2022-10-08T13:24:20.841Z,26.83
2022-10-08T13:26:50.654Z,21.85
2022-10-08T13:29:23.974Z,24.63
2022-10-08T13:32:14.735Z,31.83
2022-10-08T13:34:46.369Z,26.52
2022-10-08T13:37:24.180Z,24.80
2022-10-08T13:39:53.102Z,27.83
2022-10-08T13:42:23.419Z,22.65
2022-10-08T13:44:51.486Z,26.13
2022-10-08T13:47:21.462Z,26.95
2022-10-08T13:49:49.000Z,25.42
2022-10-08T13:52:21.375Z,27.23
2022-10-08T13:54:51.524Z,24.30
2022-10-08T13:57:18.949Z,24.30
2022-10-08T13:59:46.311Z,23.85
2022-10-08T14:02:14.495Z,30.38
2022-10-08T14:04:42.108Z,25.35
2022-10-08T14:07:21.159Z,21.08
2022-10-08T14:09:48.597Z,22.45
2022-10-08T14:12:17.021Z,26.23
2022-10-08T14:14:44.348Z,37.22
2022-10-08T14:17:11.690Z,21.88
2022-10-08T14:19:39.033Z,47.30
2022-10-08T14:22:06.361Z,29.45
2022-10-08T14:24:33.709Z,21.05
2022-10-08T14:27:07.410Z,23.00
2022-10-08T14:29:35.999Z,28.40
2022-10-08T14:32:04.681Z,23.77
2022-10-08T14:34:32.093Z,22.77
2022-10-08T14:36:59.929Z,23.30
2022-10-08T14:39:28.153Z,24.65
2022-10-08T14:41:55.549Z,29.17
2022-10-08T14:44:22.977Z,24.40
2022-10-08T14:46:53.935Z,27.42
2022-10-08T14:49:22.155Z,32.40
2022-10-08T14:51:49.649Z,21.40
2022-10-08T14:54:18.091Z,29.58
2022-10-08T14:56:46.523Z,28.65
2022-10-08T14:59:14.055Z,21.92
2022-10-08T15:01:41.476Z,24.95
2022-10-08T15:04:13.427Z,24.08
2022-10-08T15:06:41.052Z,23.02
2022-10-08T15:09:10.890Z,22.65
2022-10-08T15:11:38.736Z,23.70
2022-10-08T15:14:06.302Z,22.42
2022-10-08T15:16:33.715Z,48.85
2022-10-08T15:19:01.124Z,31.88
2022-10-08T15:21:28.544Z,29.98
2022-10-08T15:23:57.022Z,23.02
2022-10-08T15:26:24.465Z,23.77
2022-10-08T15:28:53.597Z,26.33
2022-10-08T15:31:25.174Z,27.85
2022-10-08T15:33:54.343Z,17.23
2022-10-08T15:36:33.038Z,22.33
2022-10-08T15:39:06.213Z,16.23
2022-10-08T15:41:38.247Z,22.77
2022-10-08T15:44:17.479Z,21.50
2022-10-08T15:46:49.319Z,20.40
2022-10-08T15:49:16.851Z,17.98
2022-10-08T15:51:44.156Z,17.02
2022-10-08T15:54:11.490Z,19.38
2022-10-08T15:56:38.898Z,18.30
2022-10-08T15:59:06.405Z,16.20
2022-10-08T16:01:33.801Z,18.40
2022-10-08T16:04:01.335Z,16.65
2022-10-08T16:06:33.929Z,23.65
2022-10-08T16:09:02.169Z,14.55
2022-10-08T16:11:34.732Z,13.93
2022-10-08T16:14:22.686Z,17.25
2022-10-08T16:16:51.269Z,15.20
2022-10-08T16:19:21.463Z,16.90
2022-10-08T16:21:50.287Z,15.65
2022-10-08T16:24:18.070Z,17.02
2022-10-08T16:26:47.054Z,22.38
2022-10-08T16:29:16.593Z,34.30
2022-10-08T16:31:45.453Z,29.98
2022-10-08T16:34:16.002Z,19.80
2022-10-08T16:36:44.168Z,25.77
2022-10-08T16:39:13.658Z,28.95
2022-10-08T16:41:41.425Z,17.27
2022-10-08T16:44:12.905Z,15.18
2022-10-08T16:46:43.845Z,29.52
2022-10-08T16:49:21.315Z,32.65
2022-10-08T16:51:53.249Z,39.53
2022-10-08T16:54:20.692Z,28.27
2022-10-08T16:56:48.245Z,40.55
2022-10-08T16:59:19.348Z,28.17
2022-10-08T17:01:50.018Z,34.95
2022-10-08T17:04:19.614Z,30.52
2022-10-08T17:06:47.324Z,35.35
2022-10-08T17:09:14.836Z,37.65
2022-10-08T17:11:42.454Z,60.85
2022-10-08T17:14:11.564Z,44.53
2022-10-08T17:16:40.344Z,40.78
2022-10-08T17:19:07.761Z,42.97
2022-10-08T17:21:36.037Z,36.65
2022-10-08T17:24:03.458Z,38.92
2022-10-08T17:26:31.535Z,37.70
2022-10-08T17:29:07.842Z,42.08
2022-10-08T17:31:36.284Z,35.08
2022-10-08T17:34:04.466Z,33.47
2022-10-08T17:36:34.831Z,34.13
2022-10-08T17:39:04.489Z,35.42
2022-10-08T17:41:34.766Z,33.28
2022-10-08T17:44:04.579Z,37.72
2022-10-08T17:46:35.131Z,30.63
2022-10-08T17:49:03.512Z,33.95
2022-10-08T17:51:32.015Z,35.40
2022-10-08T17:54:04.700Z,28.02
2022-10-08T17:56:32.911Z,32.15
2022-10-08T17:59:00.799Z,27.02
2022-10-08T18:01:34.232Z,29.20
2022-10-08T18:04:09.915Z,29.90
2022-10-08T18:06:43.093Z,27.73
2022-10-08T18:09:13.450Z,30.63
2022-10-08T18:11:43.391Z,27.52
2022-10-08T18:14:11.296Z,28.95
2022-10-08T18:16:39.082Z,30.98
2022-10-08T18:19:08.902Z,28.98
2022-10-08T18:21:36.823Z,24.90
2022-10-08T18:24:04.835Z,26.00
2022-10-08T18:26:34.753Z,30.70
2022-10-08T18:29:05.675Z,32.20
2022-10-08T18:31:33.711Z,26.15
2022-10-08T18:34:06.356Z,26.00
2022-10-08T18:36:36.083Z,26.50
2022-10-08T18:39:15.829Z,27.63
2022-10-08T18:41:45.645Z,26.90
2022-10-08T18:44:16.551Z,25.67
2022-10-08T18:46:45.149Z,32.22
2022-10-08T18:49:14.069Z,29.98
2022-10-08T18:51:41.589Z,21.90
2022-10-08T18:54:09.735Z,27.02
2022-10-08T18:56:39.402Z,34.30
2022-10-08T18:59:09.072Z,28.75
2022-10-08T19:01:39.536Z,25.77
2022-10-08T19:04:11.452Z,28.70
2022-10-08T19:06:41.834Z,29.90
2022-10-08T19:09:09.704Z,26.70
2022-10-08T19:11:44.980Z,31.58
2022-10-08T19:14:15.615Z,27.40
2022-10-08T19:16:43.909Z,29.08
2022-10-08T19:19:21.760Z,30.85
2022-10-08T19:21:50.423Z,31.50
2022-10-08T19:24:20.556Z,27.27
2022-10-08T19:26:48.964Z,26.98
2022-10-08T19:29:19.053Z,32.00
2022-10-08T19:31:47.727Z,28.20
2022-10-08T19:34:18.861Z,27.65
2022-10-08T19:36:46.907Z,28.20
2022-10-08T19:39:20.170Z,29.50
2022-10-08T19:41:47.804Z,28.55
2022-10-08T19:44:16.635Z,28.85
2022-10-08T19:46:44.555Z,31.52
2022-10-08T19:49:12.091Z,38.67
2022-10-08T19:51:40.282Z,36.90
2022-10-08T19:54:07.862Z,34.13
2022-10-08T19:56:36.341Z,47.38
2022-10-08T19:59:04.656Z,41.88
2022-10-08T20:01:34.766Z,33.55
2022-10-08T20:04:03.586Z,33.35
2022-10-08T20:06:32.782Z,30.52
2022-10-08T20:09:02.840Z,31.52
2022-10-08T20:11:31.851Z,32.15
2022-10-08T20:14:00.319Z,31.98
2022-10-08T20:16:30.475Z,32.03
2022-10-08T20:19:04.517Z,32.03
2022-10-08T20:21:35.186Z,35.17
2022-10-08T20:24:03.679Z,35.53
2022-10-08T20:26:33.747Z,25.45
2022-10-08T20:29:03.640Z,31.65
2022-10-08T20:31:33.759Z,30.00
2022-10-08T20:34:06.623Z,27.25
2022-10-08T20:36:34.360Z,35.38
2022-10-08T20:39:02.229Z,38.53
2022-10-08T20:41:31.212Z,28.95
2022-10-08T20:44:03.475Z,28.95
2022-10-08T20:46:32.675Z,24.98
2022-10-08T20:49:00.625Z,31.90
2022-10-08T20:51:29.340Z,27.33
2022-10-08T20:54:02.515Z,32.30
2022-10-08T20:56:34.669Z,27.80
2022-10-08T20:59:05.464Z,31.80
2022-10-08T21:01:35.525Z,32.85
2022-10-08T21:04:03.752Z,32.53
2022-10-08T21:06:37.222Z,26.17
2022-10-08T21:09:05.150Z,29.02
2022-10-08T21:11:32.779Z,30.90
2022-10-08T21:14:01.802Z,33.00
2022-10-08T21:16:35.518Z,32.97
2022-10-08T21:19:05.283Z,30.58
2022-10-08T21:21:34.531Z,27.23
2022-10-08T21:24:02.328Z,27.40
2022-10-08T21:26:38.381Z,25.85
2022-10-08T21:29:08.573Z,27.60
2022-10-08T21:31:37.828Z,27.20
2022-10-08T21:34:05.723Z,30.88
2022-10-08T21:36:36.877Z,27.95
2022-10-08T21:39:07.014Z,28.73
2022-10-08T21:41:36.818Z,26.95
2022-10-08T21:44:06.550Z,30.35
2022-10-08T21:46:36.690Z,27.63
2022-10-08T21:49:10.417Z,27.13
2022-10-08T21:51:37.947Z,27.85
2022-10-08T21:54:06.688Z,29.65
2022-10-08T21:56:36.448Z,34.50
2022-10-08T21:59:05.707Z,29.42
2022-10-08T22:01:42.394Z,32.50
2022-10-08T22:04:12.689Z,33.28
2022-10-08T22:06:43.647Z,27.30
2022-10-08T22:09:14.666Z,30.67
2022-10-08T22:11:42.122Z,28.10
2022-10-08T22:14:09.783Z,34.33
2022-10-08T22:16:37.768Z,29.70
2022-10-08T22:19:05.859Z,30.58
2022-10-08T22:21:33.888Z,31.45
2022-10-08T22:24:01.731Z,30.25
2022-10-08T22:26:32.816Z,30.55
2022-10-08T22:29:00.857Z,30.58
2022-10-08T22:31:29.601Z,30.30
2022-10-08T22:33:57.091Z,27.02
2022-10-08T22:36:37.131Z,32.95
2022-10-08T22:39:04.508Z,34.30
2022-10-08T22:41:32.760Z,29.08
2022-10-08T22:44:00.694Z,29.35
2022-10-08T22:46:30.675Z,32.30
2022-10-08T22:49:03.399Z,30.05
2022-10-08T22:51:31.360Z,29.80
2022-10-08T22:53:59.138Z,28.17
2022-10-08T22:56:29.573Z,30.88
2022-10-08T22:58:59.167Z,32.35
2022-10-08T23:01:28.483Z,31.25
2022-10-08T23:03:56.270Z,35.42
2022-10-08T23:06:32.352Z,30.73
2022-10-08T23:09:01.810Z,35.25
2022-10-08T23:11:30.122Z,33.28
2022-10-08T23:13:58.875Z,33.65
2022-10-08T23:16:28.627Z,31.90
2022-10-08T23:18:58.642Z,32.35
2022-10-08T23:21:26.791Z,36.22
2022-10-08T23:23:55.137Z,34.20
2022-10-08T23:26:23.558Z,36.05
2022-10-08T23:28:53.390Z,36.22
2022-10-08T23:31:23.700Z,38.10
2022-10-08T23:33:52.698Z,33.22
2022-10-08T23:36:26.938Z,32.45
2022-10-08T23:38:55.571Z,31.70
2022-10-08T23:41:23.467Z,30.02
2022-10-08T23:43:52.298Z,37.50
2022-10-08T23:46:22.605Z,29.92
2022-10-08T23:48:50.784Z,33.85
2022-10-08T23:51:19.935Z,32.95
2022-10-08T23:53:47.910Z,31.00
2022-10-08T23:56:15.345Z,32.80
2022-10-08T23:58:42.991Z,32.40
